createdAt,value
2023-04-01T00:00:15.175Z,98069.97
2023-04-01T00:01:17.721Z,98075.47
2023-04-01T00:02:19.810Z,98078.13
2023-04-01T00:03:22.876Z,98059.41
2023-04-01T00:04:24.937Z,98065.03
2023-04-01T00:05:26.668Z,98057.34
2023-04-01T00:06:29.027Z,98058.16
2023-04-01T00:07:34.170Z,98048.94
2023-04-01T00:08:35.994Z,98047.00
2023-04-01T00:09:38.513Z,98064.25
2023-04-01T00:10:40.306Z,98065.03
2023-04-01T00:11:42.054Z,98068.38
2023-04-01T00:12:44.173Z,98069.63
2023-04-01T00:13:46.429Z,98064.56
2023-04-01T00:14:48.154Z,98072.84
2023-04-01T00:15:50.035Z,98069.97
2023-04-01T00:16:51.824Z,98071.13
2023-04-01T00:17:54.118Z,98063.44
2023-04-01T00:18:56.030Z,98070.31
2023-04-01T00:19:58.078Z,98078.03
2023-04-01T00:20:59.934Z,98072.75
2023-04-01T00:22:01.692Z,98075.63
2023-04-01T00:23:04.364Z,98077.69
2023-04-01T00:24:06.919Z,98071.22
2023-04-01T00:25:09.057Z,98068.38
2023-04-01T00:26:10.774Z,98068.59
2023-04-01T00:27:12.515Z,98067.22
2023-04-01T00:28:14.960Z,98069.03
2023-04-01T00:29:16.775Z,98067.69
2023-04-01T00:30:18.824Z,98071.69
2023-04-01T00:31:20.950Z,98070.34
2023-04-01T00:32:22.810Z,98071.91
2023-04-01T00:33:24.559Z,98064.69
2023-04-01T00:34:26.736Z,98061.25
2023-04-01T00:35:28.462Z,98069.75
2023-04-01T00:36:30.206Z,98067.13
2023-04-01T00:37:32.133Z,98060.44
2023-04-01T00:38:33.823Z,98066.88
2023-04-01T00:39:36.279Z,98066.53
2023-04-01T00:40:44.640Z,98068.72
2023-04-01T00:41:46.401Z,98075.03
2023-04-01T00:42:48.104Z,98069.75
2023-04-01T00:43:52.117Z,98071.25
2023-04-01T00:44:56.291Z,98073.66
2023-04-01T00:45:58.334Z,98079.16
2023-04-01T00:47:00.829Z,98084.69
2023-04-01T00:48:16.420Z,98070.09
2023-04-01T00:49:21.064Z,98069.06
2023-04-01T00:50:25.935Z,98069.53
2023-04-01T00:51:30.369Z,98065.72
2023-04-01T00:52:32.331Z,98066.19
2023-04-01T00:53:37.595Z,98060.44
2023-04-01T00:54:43.235Z,98069.75
2023-04-01T00:55:52.474Z,98070.78
2023-04-01T00:57:01.778Z,98068.16
2023-04-01T00:58:08.505Z,98066.53
2023-04-01T00:59:17.251Z,98067.00
2023-04-01T01:00:19.506Z,98061.94
2023-04-01T01:01:24.992Z,98059.50
2023-04-01T01:02:27.021Z,98051.72
2023-04-01T01:03:29.587Z,98044.69
2023-04-01T01:04:33.888Z,98062.88
2023-04-01T01:06:08.195Z,98063.88
2023-04-01T01:07:22.037Z,98056.78
2023-04-01T01:08:34.309Z,98049.41
2023-04-01T01:09:54.930Z,98051.94
2023-04-01T01:10:56.626Z,98048.13
2023-04-01T01:12:13.570Z,98051.34
2023-04-01T01:13:32.308Z,98062.72
2023-04-01T01:14:42.974Z,98058.25
2023-04-01T01:15:53.969Z,98061.09
2023-04-01T01:17:07.720Z,98052.25
2023-04-01T01:18:09.426Z,98066.16
2023-04-01T01:19:20.134Z,98061.91
2023-04-01T01:20:36.951Z,98061.09
2023-04-01T01:22:29.254Z,98055.03
2023-04-01T01:23:39.815Z,98054.44
2023-04-01T01:24:59.539Z,98046.53
2023-04-01T01:26:23.542Z,98058.34
2023-04-01T01:27:25.655Z,98052.25
2023-04-01T01:29:02.849Z,98055.47
2023-04-01T01:30:10.849Z,98057.09
2023-04-01T01:31:18.066Z,98059.63
2023-04-01T01:32:39.996Z,98046.72
2023-04-01T01:33:57.509Z,98066.84
2023-04-01T01:35:21.404Z,98059.72
2023-04-01T01:36:27.896Z,98058.34
2023-04-01T01:37:32.331Z,98059.94
2023-04-01T01:38:36.155Z,98058.00
2023-04-01T01:39:38.765Z,98061.78
2023-04-01T01:40:43.599Z,98058.69
2023-04-01T01:41:50.396Z,98062.38
2023-04-01T01:42:57.848Z,98060.75
2023-04-01T01:44:02.825Z,98056.28
2023-04-01T01:45:07.115Z,98053.63
2023-04-01T01:46:14.465Z,98056.06
2023-04-01T01:47:18.108Z,98036.09
2023-04-01T01:48:20.977Z,98053.78
2023-04-01T01:49:24.302Z,98048.84
2023-04-01T01:50:27.756Z,98049.28
2023-04-01T01:51:29.857Z,98054.13
2023-04-01T01:52:31.611Z,98035.50
2023-04-01T01:53:33.333Z,98051.72
2023-04-01T01:54:35.131Z,98048.84
2023-04-01T01:55:42.772Z,98043.09
2023-04-01T01:56:48.796Z,98049.16
2023-04-01T01:57:51.354Z,98047.22
2023-04-01T01:58:57.961Z,98036.41
2023-04-01T02:00:13.977Z,98038.50
2023-04-01T02:01:30.069Z,98035.75
2023-04-01T02:02:33.165Z,98027.00
2023-04-01T02:03:37.845Z,98035.88
2023-04-01T02:04:43.267Z,98026.13
2023-04-01T02:05:45.797Z,98024.06
2023-04-01T02:06:54.886Z,98018.78
2023-04-01T02:08:02.688Z,98011.97
2023-04-01T02:09:08.174Z,98007.16
2023-04-01T02:10:10.348Z,98005.66
2023-04-01T02:11:16.841Z,98004.63
2023-04-01T02:12:20.789Z,97998.78
2023-04-01T02:13:48.061Z,97989.72
2023-04-01T02:14:58.950Z,97993.50
2023-04-01T02:16:05.983Z,97999.56
2023-04-01T02:17:12.166Z,98000.97
2023-04-01T02:18:15.696Z,97998.31
2023-04-01T02:19:23.631Z,97997.75
2023-04-01T02:20:26.033Z,98008.44
2023-04-01T02:21:32.275Z,98011.06
2023-04-01T02:22:43.034Z,98013.72
2023-04-01T02:23:46.638Z,98021.41
2023-04-01T02:24:51.472Z,98020.38
2023-04-01T02:25:54.155Z,98019.81
2023-04-01T02:26:56.088Z,98016.94
2023-04-01T02:28:00.462Z,98010.94
2023-04-01T02:29:04.881Z,98011.97
2023-04-01T02:30:08.340Z,98018.66
2023-04-01T02:31:12.220Z,98012.09
2023-04-01T02:32:15.605Z,97998.19
2023-04-01T02:33:18.392Z,98013.72
2023-04-01T02:34:22.436Z,98000.75
2023-04-01T02:35:24.711Z,97999.94
2023-04-01T02:36:26.524Z,98003.47
2023-04-01T02:37:28.278Z,97994.53
2023-04-01T02:38:30.104Z,97991.78
2023-04-01T02:39:31.838Z,97997.38
2023-04-01T02:40:45.388Z,97999.81
2023-04-01T02:41:47.239Z,97997.53
2023-04-01T02:42:48.972Z,98001.63
2023-04-01T02:43:50.850Z,98000.75
2023-04-01T02:44:52.536Z,98006.59
2023-04-01T02:45:54.698Z,97998.09
2023-04-01T02:46:56.460Z,97993.13
2023-04-01T02:47:58.224Z,98012.91
2023-04-01T02:49:00.021Z,98019.53
2023-04-01T02:50:01.767Z,98018.50
2023-04-01T02:51:03.665Z,98021.72
2023-04-01T02:52:05.805Z,98019.09
2023-04-01T02:53:07.761Z,98013.81
2023-04-01T02:54:09.546Z,98012.09
2023-04-01T02:55:11.394Z,98020.25
2023-04-01T02:56:13.499Z,98016.59
2023-04-01T02:57:15.224Z,98017.38
2023-04-01T02:58:17.482Z,98018.63
2023-04-01T02:59:19.265Z,98019.91
2023-04-01T03:00:21.058Z,98016.91
2023-04-01T03:01:23.874Z,98020.03
2023-04-01T03:02:25.954Z,98015.78
2023-04-01T03:03:27.816Z,98006.09
2023-04-01T03:04:29.544Z,97989.59
2023-04-01T03:05:31.898Z,98007.72
2023-04-01T03:06:33.858Z,98010.25
2023-04-01T03:07:35.754Z,97996.72
2023-04-01T03:08:37.558Z,98004.38
2023-04-01T03:09:40.101Z,97997.56
2023-04-01T03:10:41.848Z,97993.63
2023-04-01T03:11:43.602Z,97992.47
2023-04-01T03:12:45.320Z,97983.72
2023-04-01T03:13:47.039Z,97988.66
2023-04-01T03:14:48.877Z,98001.69
2023-04-01T03:15:50.777Z,97996.44
2023-04-01T03:16:52.606Z,98009.81
2023-04-01T03:17:54.363Z,98003.03
2023-04-01T03:18:57.908Z,98007.19
2023-04-01T03:19:59.623Z,98001.78
2023-04-01T03:21:22.416Z,98010.56
2023-04-01T03:22:24.090Z,98009.31
2023-04-01T03:23:25.834Z,98010.78
2023-04-01T03:24:27.535Z,98009.59
2023-04-01T03:25:31.895Z,98001.69
2023-04-01T03:26:34.035Z,98001.56
2023-04-01T03:27:38.733Z,97999.38
2023-04-01T03:28:40.613Z,98001.00
2023-04-01T03:29:42.358Z,97989.66
2023-04-01T03:30:44.079Z,97995.28
2023-04-01T03:31:45.965Z,97988.41
2023-04-01T03:32:47.715Z,97986.34
2023-04-01T03:33:49.609Z,97986.91
2023-04-01T03:34:51.324Z,97985.63
2023-04-01T03:35:53.425Z,97973.63
2023-04-01T03:36:55.693Z,97980.94
2023-04-01T03:37:57.645Z,97972.47
2023-04-01T03:38:59.337Z,97964.44
2023-04-01T03:40:01.049Z,97965.28
2023-04-01T03:41:03.287Z,97976.34
2023-04-01T03:42:05.309Z,97973.19
2023-04-01T03:43:09.461Z,97975.72
2023-04-01T03:44:11.319Z,97970.38
2023-04-01T03:45:13.703Z,97969.28
2023-04-01T03:46:21.745Z,97976.84
2023-04-01T03:47:23.670Z,97979.66
2023-04-01T03:48:26.553Z,97979.56
2023-04-01T03:49:28.268Z,97972.94
2023-04-01T03:50:31.152Z,97978.41
2023-04-01T03:51:33.561Z,97974.69
2023-04-01T03:52:35.882Z,97974.13
2023-04-01T03:53:37.705Z,97978.34
2023-04-01T03:54:39.894Z,97970.66
2023-04-01T03:55:41.582Z,97982.34
2023-04-01T03:56:43.291Z,97970.22
2023-04-01T03:57:45.317Z,97973.88
2023-04-01T03:58:47.130Z,97973.19
2023-04-01T03:59:48.854Z,97967.50
2023-04-01T04:00:50.610Z,97962.53
2023-04-01T04:01:52.292Z,97967.13
2023-04-01T04:02:54.274Z,97958.13
2023-04-01T04:03:57.376Z,97959.44
2023-04-01T04:04:59.153Z,97970.28
2023-04-01T04:06:00.937Z,97955.94
2023-04-01T04:07:02.825Z,97952.06
2023-04-01T04:08:04.742Z,97953.63
2023-04-01T04:09:06.484Z,97960.84
2023-04-01T04:10:08.667Z,97945.84
2023-04-01T04:11:10.409Z,97951.72
2023-04-01T04:12:12.430Z,97954.34
2023-04-01T04:13:14.119Z,97946.66
2023-04-01T04:14:16.027Z,97951.72
2023-04-01T04:15:18.114Z,97959.19
2023-04-01T04:16:20.430Z,97961.13
2023-04-01T04:17:22.186Z,97957.03
2023-04-01T04:18:23.988Z,97955.22
2023-04-01T04:19:25.785Z,97962.25
2023-04-01T04:20:27.679Z,97961.50
2023-04-01T04:21:29.376Z,97952.94
2023-04-01T04:22:31.100Z,97970.50
2023-04-01T04:23:34.580Z,97956.53
2023-04-01T04:24:36.998Z,97961.66
2023-04-01T04:25:38.701Z,97967.66
2023-04-01T04:26:40.491Z,97956.91
2023-04-01T04:27:42.236Z,97958.13
2023-04-01T04:28:44.054Z,97957.69
2023-04-01T04:29:45.814Z,97957.53
2023-04-01T04:30:47.786Z,97968.94
2023-04-01T04:31:49.569Z,97957.75
2023-04-01T04:32:51.374Z,97966.63
2023-04-01T04:33:54.232Z,97978.47
2023-04-01T04:34:55.939Z,97971.56
2023-04-01T04:35:59.105Z,97962.44
2023-04-01T04:37:01.091Z,97969.75
2023-04-01T04:38:02.827Z,97959.22
2023-04-01T04:39:04.635Z,97956.44
2023-04-01T04:40:07.192Z,97956.31
2023-04-01T04:41:13.832Z,97961.47
2023-04-01T04:42:15.607Z,97964.78
2023-04-01T04:43:18.950Z,97962.97
2023-04-01T04:44:20.973Z,97954.69
2023-04-01T04:45:22.650Z,97964.00
2023-04-01T04:46:24.771Z,97956.78
2023-04-01T04:47:26.517Z,97965.88
2023-04-01T04:48:28.275Z,97966.25
2023-04-01T04:49:30.065Z,97968.78
2023-04-01T04:50:31.779Z,97963.66
2023-04-01T04:51:37.085Z,97951.94
2023-04-01T04:52:38.803Z,97969.19
2023-04-01T04:53:40.575Z,97967.69
2023-04-01T04:54:42.250Z,97968.75
2023-04-01T04:55:48.517Z,97966.91
2023-04-01T04:56:52.744Z,97969.59
2023-04-01T04:57:54.451Z,97969.25
2023-04-01T04:58:56.300Z,97972.59
2023-04-01T04:59:58.119Z,97981.00
2023-04-01T05:00:59.900Z,97965.50
2023-04-01T05:02:02.198Z,97964.44
2023-04-01T05:03:04.119Z,97972.59
2023-04-01T05:04:06.331Z,97963.50
2023-04-01T05:05:08.692Z,97966.88
2023-04-01T05:06:13.828Z,97959.84
2023-04-01T05:07:15.705Z,97962.63
2023-04-01T05:08:17.498Z,97951.25
2023-04-01T05:09:19.260Z,97947.13
2023-04-01T05:10:21.899Z,97956.88
2023-04-01T05:11:23.661Z,97967.91
2023-04-01T05:12:25.465Z,97967.09
2023-04-01T05:13:27.208Z,97964.66
2023-04-01T05:14:28.993Z,97965.94
2023-04-01T05:15:31.018Z,97977.38
2023-04-01T05:16:32.983Z,97965.88
2023-04-01T05:17:34.963Z,97967.25
2023-04-01T05:18:36.729Z,97954.25
2023-04-01T05:19:38.769Z,97970.66
2023-04-01T05:20:40.533Z,97963.00
2023-04-01T05:21:42.214Z,97954.44
2023-04-01T05:22:44.456Z,97961.31
2023-04-01T05:23:46.182Z,97954.38
2023-04-01T05:24:47.975Z,97955.91
2023-04-01T05:25:50.981Z,97952.94
2023-04-01T05:26:53.404Z,97956.47
2023-04-01T05:27:56.110Z,97937.06
2023-04-01T05:28:57.817Z,97955.03
2023-04-01T05:29:59.776Z,97957.50
2023-04-01T05:31:03.473Z,97958.97
2023-04-01T05:32:05.874Z,97954.84
2023-04-01T05:33:07.615Z,97956.28
2023-04-01T05:34:09.492Z,97942.00
2023-04-01T05:35:11.612Z,97946.09
2023-04-01T05:36:15.817Z,97945.34
2023-04-01T05:37:17.677Z,97939.25
2023-04-01T05:38:19.436Z,97947.28
2023-04-01T05:39:21.521Z,97946.56
2023-04-01T05:40:23.461Z,97947.09
2023-04-01T05:41:25.192Z,97937.00
2023-04-01T05:42:26.963Z,97932.22
2023-04-01T05:43:29.113Z,97925.66
2023-04-01T05:44:30.935Z,97923.25
2023-04-01T05:45:32.790Z,97922.75
2023-04-01T05:46:34.769Z,97883.16
2023-04-01T05:47:36.616Z,97907.34
2023-04-01T05:48:38.428Z,97903.53
2023-04-01T05:49:40.123Z,97913.31
2023-04-01T05:50:43.008Z,97913.25
2023-04-01T05:51:44.690Z,97908.50
2023-04-01T05:52:47.038Z,97910.63
2023-04-01T05:53:48.809Z,97910.28
2023-04-01T05:54:50.519Z,97903.41
2023-04-01T05:55:52.199Z,97896.16
2023-04-01T05:56:54.020Z,97901.19
2023-04-01T05:57:58.087Z,97881.13
2023-04-01T05:58:59.985Z,97887.63
2023-04-01T06:00:01.818Z,97889.97
2023-04-01T06:01:11.617Z,97886.25
2023-04-01T06:02:18.986Z,97884.97
2023-04-01T06:03:20.904Z,97891.03
2023-04-01T06:04:22.962Z,97883.00
2023-04-01T06:05:28.522Z,97889.25
2023-04-01T06:06:34.019Z,97890.94
2023-04-01T06:07:35.739Z,97888.38
2023-04-01T06:08:38.726Z,97887.00
2023-04-01T06:09:40.493Z,97891.81
2023-04-01T06:11:18.668Z,97889.16
2023-04-01T06:12:32.292Z,97889.66
2023-04-01T06:13:44.263Z,97885.47
2023-04-01T06:15:16.965Z,97875.38
2023-04-01T06:16:21.553Z,97881.22
2023-04-01T06:17:29.221Z,97867.25
2023-04-01T06:18:46.775Z,97863.19
2023-04-01T06:20:15.926Z,97861.13
2023-04-01T06:21:29.676Z,97858.81
2023-04-01T06:22:40.157Z,97855.03
2023-04-01T06:24:14.124Z,97853.22
2023-04-01T06:25:38.334Z,97852.84
2023-04-01T06:27:01.539Z,97854.78
2023-04-01T06:28:08.893Z,97857.75
2023-04-01T06:29:16.922Z,97857.53
2023-04-01T06:30:36.300Z,97864.56
2023-04-01T06:31:50.604Z,97862.56
2023-04-01T06:33:12.600Z,97871.66
2023-04-01T06:34:39.179Z,97868.34
2023-04-01T06:35:49.979Z,97861.69
2023-04-01T06:37:10.125Z,97865.69
2023-04-01T06:38:21.100Z,97857.53
2023-04-01T06:39:34.875Z,97847.50
2023-04-01T06:40:59.618Z,97853.34
2023-04-01T06:42:11.123Z,97858.47
2023-04-01T06:43:34.502Z,97869.38
2023-04-01T06:44:56.328Z,97877.63
2023-04-01T06:46:12.602Z,97868.97
2023-04-01T06:47:30.313Z,97872.41
2023-04-01T06:48:40.457Z,97863.09
2023-04-01T06:49:57.802Z,97846.44
2023-04-01T06:51:02.472Z,97861.59
2023-04-01T06:52:04.148Z,97861.91
2023-04-01T06:53:07.690Z,97859.75
2023-04-01T06:54:23.170Z,97861.34
2023-04-01T06:55:42.805Z,97863.81
2023-04-01T06:56:49.673Z,97873.44
2023-04-01T06:57:57.066Z,97869.75
2023-04-01T06:59:08.165Z,97837.31
2023-04-01T07:00:22.003Z,97874.41
2023-04-01T07:01:36.637Z,97881.94
2023-04-01T07:02:55.247Z,97882.56
2023-04-01T07:03:59.105Z,97881.03
2023-04-01T07:05:03.198Z,97888.47
2023-04-01T07:06:12.581Z,97880.47
2023-04-01T07:07:36.133Z,97870.34
2023-04-01T07:08:42.437Z,97858.41
2023-04-01T07:09:51.755Z,97867.28
2023-04-01T07:11:03.856Z,97862.50
2023-04-01T07:12:27.940Z,97852.69
2023-04-01T07:13:56.500Z,97859.59
2023-04-01T07:15:02.721Z,97854.66
2023-04-01T07:16:13.241Z,97858.50
2023-04-01T07:17:29.836Z,97842.22
2023-04-01T07:19:02.222Z,97848.88
2023-04-01T07:20:04.245Z,97845.97
2023-04-01T07:21:10.909Z,97838.53
2023-04-01T07:22:28.021Z,97826.03
2023-04-01T07:23:40.384Z,97833.16
2023-04-01T07:24:48.292Z,97838.22
2023-04-01T07:25:56.475Z,97834.44
2023-04-01T07:26:59.207Z,97818.63
2023-04-01T07:28:14.252Z,97827.38
2023-04-01T07:29:16.637Z,97830.28
2023-04-01T07:30:21.409Z,97828.78
2023-04-01T07:31:29.389Z,97829.09
2023-04-01T07:32:41.995Z,97822.31
2023-04-01T07:34:02.334Z,97826.03
2023-04-01T07:35:25.045Z,97831.31
2023-04-01T07:36:51.543Z,97823.94
2023-04-01T07:38:16.109Z,97830.38
2023-04-01T07:39:31.518Z,97829.31
2023-04-01T07:40:43.611Z,97837.38
2023-04-01T07:42:09.086Z,97824.91
2023-04-01T07:43:10.856Z,97821.03
2023-04-01T07:44:27.724Z,97825.63
2023-04-01T07:45:35.766Z,97819.13
2023-04-01T07:46:45.856Z,97813.31
2023-04-01T07:48:13.322Z,97810.78
2023-04-01T07:50:22.451Z,97821.50
2023-04-01T07:51:39.171Z,97823.41
2023-04-01T07:52:49.856Z,97822.13
2023-04-01T07:54:02.037Z,97819.78
2023-04-01T07:55:11.342Z,97819.31
2023-04-01T07:56:25.800Z,97819.88
2023-04-01T07:58:29.091Z,97817.84
2023-04-01T07:59:57.492Z,97819.81
2023-04-01T08:01:44.993Z,97821.00
2023-04-01T08:03:24.029Z,97818.97
2023-04-01T08:04:35.134Z,97821.66
2023-04-01T08:05:51.893Z,97815.63
2023-04-01T08:07:08.831Z,97814.44
2023-04-01T08:08:28.903Z,97814.50
2023-04-01T08:09:49.729Z,97818.75
2023-04-01T08:10:56.575Z,97802.56
2023-04-01T08:12:12.388Z,97817.19
2023-04-01T08:13:37.130Z,97808.38
2023-04-01T08:14:57.553Z,97803.63
2023-04-01T08:15:59.196Z,97797.81
2023-04-01T08:17:05.913Z,97797.88
2023-04-01T08:19:01.125Z,97791.00
2023-04-01T08:20:14.746Z,97788.31
2023-04-01T08:21:27.023Z,97776.00
2023-04-01T08:22:33.693Z,97778.88
2023-04-01T08:23:41.775Z,97777.78
2023-04-01T08:24:48.115Z,97775.13
2023-04-01T08:26:01.613Z,97772.41
2023-04-01T08:27:18.730Z,97761.06
2023-04-01T08:28:48.156Z,97770.09
2023-04-01T08:30:03.843Z,97763.53
2023-04-01T08:31:11.782Z,97771.84
2023-04-01T08:32:38.655Z,97770.25
2023-04-01T08:33:43.318Z,97751.69
2023-04-01T08:34:51.376Z,97754.63
2023-04-01T08:36:06.813Z,97753.34
2023-04-01T08:37:24.493Z,97761.59
2023-04-01T08:38:33.183Z,97744.31
2023-04-01T08:39:43.715Z,97755.75
2023-04-01T08:40:58.050Z,97756.81
2023-04-01T08:42:24.253Z,97757.91
2023-04-01T08:44:13.003Z,97753.41
2023-04-01T08:45:32.834Z,97741.75
2023-04-01T08:47:05.614Z,97741.22
2023-04-01T08:48:44.546Z,97736.44
2023-04-01T08:50:17.021Z,97733.25
2023-04-01T08:51:39.670Z,97737.25
2023-04-01T08:52:53.619Z,97734.88
2023-04-01T08:54:09.059Z,97735.13
2023-04-01T08:55:35.397Z,97735.41
2023-04-01T08:56:43.339Z,97722.88
2023-04-01T08:58:27.336Z,97729.00
2023-04-01T09:00:06.432Z,97727.16
2023-04-01T09:01:26.627Z,97719.94
2023-04-01T09:02:57.755Z,97714.63
2023-04-01T09:04:18.320Z,97711.44
2023-04-01T09:05:38.461Z,97705.59
2023-04-01T09:06:58.982Z,97710.66
2023-04-01T09:08:15.670Z,97696.56
2023-04-01T09:09:23.217Z,97710.38
2023-04-01T09:10:54.418Z,97701.81
2023-04-01T09:12:28.373Z,97711.44
2023-04-01T09:14:08.573Z,97690.69
2023-04-01T09:15:39.265Z,97679.28
2023-04-01T09:16:49.902Z,97682.19
2023-04-01T09:18:22.204Z,97677.94
2023-04-01T09:19:23.892Z,97681.41
2023-04-01T09:20:50.252Z,97673.66
2023-04-01T09:22:21.724Z,97657.72
2023-04-01T09:24:01.910Z,97673.16
2023-04-01T09:25:16.086Z,97671.56
2023-04-01T09:26:27.849Z,97677.44
2023-04-01T09:27:37.319Z,97670.25
2023-04-01T09:29:15.080Z,97663.03
2023-04-01T09:30:45.925Z,97656.41
2023-04-01T09:32:07.013Z,97646.56
2023-04-01T09:33:17.841Z,97639.63
2023-04-01T09:34:38.437Z,97635.91
2023-04-01T09:35:48.660Z,97642.28
2023-04-01T09:37:16.475Z,97645.75
2023-04-01T09:38:22.836Z,97638.03
2023-04-01T09:39:33.528Z,97625.28
2023-04-01T09:40:53.517Z,97631.66
2023-04-01T09:42:03.548Z,97640.13
2023-04-01T09:43:28.302Z,97649.16
2023-04-01T09:44:37.597Z,97639.56
2023-04-01T09:45:48.128Z,97646.44
2023-04-01T09:47:01.804Z,97643.72
2023-04-01T09:48:36.000Z,97625.88
2023-04-01T09:50:02.004Z,97630.88
2023-04-01T09:51:18.876Z,97629.22
2023-04-01T09:52:48.037Z,97628.88
2023-04-01T09:54:18.773Z,97620.84
2023-04-01T09:55:57.589Z,97626.16
2023-04-01T09:57:17.925Z,97642.13
2023-04-01T09:58:25.726Z,97637.69
2023-04-01T09:59:36.544Z,97641.00
2023-04-01T10:01:09.214Z,97633.59
2023-04-01T10:02:40.042Z,97620.88
2023-04-01T10:04:32.774Z,97614.78
2023-04-01T10:05:43.241Z,97621.81
2023-04-01T10:06:59.912Z,97619.25
2023-04-01T10:08:28.533Z,97604.75
2023-04-01T10:10:08.593Z,97603.81
2023-04-01T10:11:32.112Z,97611.16
2023-04-01T10:13:03.069Z,97612.13
2023-04-01T10:14:19.702Z,97591.81
2023-04-01T10:16:04.510Z,97582.22
2023-04-01T10:17:37.052Z,97591.81
2023-04-01T10:18:38.782Z,97594.34
2023-04-01T10:20:27.801Z,97581.09
2023-04-01T10:21:58.954Z,97576.78
2023-04-01T10:23:29.098Z,97570.81
2023-04-01T10:24:49.558Z,97570.69
2023-04-01T10:26:02.123Z,97565.13
2023-04-01T10:27:45.391Z,97568.97
2023-04-01T10:29:20.906Z,97555.69
2023-04-01T10:30:46.653Z,97558.13
2023-04-01T10:32:18.046Z,97562.31
2023-04-01T10:33:39.426Z,97550.06
2023-04-01T10:34:44.053Z,97546.50
2023-04-01T10:35:51.710Z,97551.16
2023-04-01T10:36:55.261Z,97550.81
2023-04-01T10:38:21.675Z,97542.88
2023-04-01T10:39:38.682Z,97527.00
2023-04-01T10:40:52.140Z,97511.13
2023-04-01T10:42:39.598Z,97507.47
2023-04-01T10:44:11.758Z,97518.28
2023-04-01T10:45:50.555Z,97529.47
2023-04-01T10:46:58.382Z,97519.97
2023-04-01T10:48:33.585Z,97503.41
2023-04-01T10:50:08.750Z,97494.41
2023-04-01T10:51:41.075Z,97499.53
2023-04-01T10:52:53.406Z,97494.81
2023-04-01T10:54:13.206Z,97506.78
2023-04-01T10:55:38.327Z,97494.00
2023-04-01T10:56:41.478Z,97490.44
2023-04-01T10:58:28.475Z,97480.34
2023-04-01T11:00:09.665Z,97468.31
2023-04-01T11:01:26.273Z,97461.09
2023-04-01T11:02:46.603Z,97459.13
2023-04-01T11:04:16.228Z,97458.34
2023-04-01T11:05:36.105Z,97462.44
2023-04-01T11:06:40.827Z,97469.72
2023-04-01T11:08:10.541Z,97470.22
2023-04-01T11:09:58.025Z,97454.63
2023-04-01T11:11:36.911Z,97440.75
2023-04-01T11:13:19.916Z,97449.97
2023-04-01T11:14:43.978Z,97452.06
2023-04-01T11:16:14.136Z,97445.41
2023-04-01T11:17:46.959Z,97441.97
2023-04-01T11:19:09.640Z,97444.53
2023-04-01T11:20:23.216Z,97449.63
2023-04-01T11:21:37.249Z,97430.72
2023-04-01T11:23:30.374Z,97427.84
2023-04-01T11:25:06.476Z,97430.16
2023-04-01T11:26:30.686Z,97427.06
2023-04-01T11:27:57.363Z,97443.00
2023-04-01T11:29:56.742Z,97424.78
2023-04-01T11:31:05.793Z,97412.41
2023-04-01T11:33:01.235Z,97398.03
2023-04-01T11:34:17.881Z,97401.56
2023-04-01T11:35:53.255Z,97409.50
2023-04-01T11:37:16.441Z,97420.00
2023-04-01T11:38:55.995Z,97419.41
2023-04-01T11:40:20.355Z,97430.38
2023-04-01T11:41:51.038Z,97423.97
2023-04-01T11:43:19.981Z,97421.28
2023-04-01T11:44:31.346Z,97403.84
2023-04-01T11:45:57.243Z,97406.88
2023-04-01T11:47:40.561Z,97405.06
2023-04-01T11:49:00.279Z,97403.72
2023-04-01T11:50:01.949Z,97403.59
2023-04-01T11:51:21.954Z,97397.34
2023-04-01T11:52:23.724Z,97404.63
2023-04-01T11:53:43.004Z,97405.91
2023-04-01T11:54:59.870Z,97411.06
2023-04-01T11:56:19.901Z,97408.69
2023-04-01T11:57:44.733Z,97407.38
2023-04-01T11:58:55.054Z,97405.00
2023-04-01T12:00:35.585Z,97410.84
2023-04-01T12:01:56.220Z,97406.16
2023-04-01T12:03:10.022Z,97411.88
2023-04-01T12:04:20.711Z,97399.03
2023-04-01T12:05:32.592Z,97400.81
2023-04-01T12:06:37.380Z,97403.50
2023-04-01T12:08:03.116Z,97396.53
2023-04-01T12:09:22.289Z,97396.28
2023-04-01T12:10:48.791Z,97391.28
2023-04-01T12:12:15.114Z,97386.16
2023-04-01T12:13:35.186Z,97372.91
2023-04-01T12:14:51.912Z,97372.50
2023-04-01T12:16:23.926Z,97372.25
2023-04-01T12:17:46.957Z,97369.16
2023-04-01T12:19:07.421Z,97370.47
2023-04-01T12:20:30.563Z,97365.13
2023-04-01T12:21:46.539Z,97350.75
2023-04-01T12:22:57.212Z,97349.97
2023-04-01T12:24:25.395Z,97338.75
2023-04-01T12:25:55.435Z,97339.91
2023-04-01T12:27:06.182Z,97338.81
2023-04-01T12:28:16.021Z,97331.25
2023-04-01T12:29:29.914Z,97321.47
2023-04-01T12:30:37.135Z,97324.47
2023-04-01T12:32:14.086Z,97319.09
2023-04-01T12:33:42.542Z,97320.78
2023-04-01T12:34:59.476Z,97314.16
2023-04-01T12:36:21.643Z,97310.69
2023-04-01T12:37:50.824Z,97317.28
2023-04-01T12:38:52.461Z,97313.81
2023-04-01T12:40:11.046Z,97309.34
2023-04-01T12:41:19.131Z,97310.56
2023-04-01T12:42:33.054Z,97315.16
2023-04-01T12:43:56.263Z,97306.13
2023-04-01T12:45:06.720Z,97304.81
2023-04-01T12:46:51.398Z,97297.28
2023-04-01T12:48:06.887Z,97289.22
2023-04-01T12:49:40.008Z,97299.59
2023-04-01T12:51:09.740Z,97300.44
2023-04-01T12:52:14.964Z,97307.28
2023-04-01T12:53:47.334Z,97291.38
2023-04-01T12:55:09.849Z,97299.66
2023-04-01T12:56:24.691Z,97299.56
2023-04-01T12:57:32.416Z,97293.72
2023-04-01T12:58:37.066Z,97286.25
2023-04-01T12:59:44.805Z,97288.03
2023-04-01T13:01:08.229Z,97284.56
2023-04-01T13:02:15.036Z,97287.22
2023-04-01T13:03:35.241Z,97286.31
2023-04-01T13:04:50.323Z,97281.66
2023-04-01T13:06:10.747Z,97292.13
2023-04-01T13:07:36.223Z,97283.19
2023-04-01T13:08:57.622Z,97279.19
2023-04-01T13:10:08.385Z,97272.81
2023-04-01T13:11:21.785Z,97270.81
2023-04-01T13:12:49.314Z,97268.72
2023-04-01T13:13:54.444Z,97265.22
2023-04-01T13:15:17.428Z,97259.75
2023-04-01T13:16:21.934Z,97253.59
2023-04-01T13:17:29.816Z,97259.09
2023-04-01T13:18:43.429Z,97258.34
2023-04-01T13:20:05.710Z,97249.28
2023-04-01T13:21:32.359Z,97251.97
2023-04-01T13:22:48.338Z,97257.91
2023-04-01T13:24:45.942Z,97259.94
2023-04-01T13:26:13.090Z,97262.53
2023-04-01T13:27:31.254Z,97256.81
2023-04-01T13:28:59.755Z,97262.91
2023-04-01T13:30:26.963Z,97273.41
2023-04-01T13:31:47.419Z,97270.72
2023-04-01T13:33:09.562Z,97286.19
2023-04-01T13:34:11.303Z,97288.25
2023-04-01T13:35:23.355Z,97307.38
2023-04-01T13:36:43.691Z,97334.28
2023-04-01T13:38:10.100Z,97367.47
2023-04-01T13:39:36.663Z,97399.06
2023-04-01T13:41:02.268Z,97403.59
2023-04-01T13:42:12.632Z,97405.50
2023-04-01T13:43:26.928Z,97413.69
2023-04-01T13:44:47.114Z,97442.25
2023-04-01T13:46:04.068Z,97431.22
2023-04-01T13:47:08.864Z,97454.53
2023-04-01T13:48:28.160Z,97457.78
2023-04-01T13:49:43.005Z,97456.28
2023-04-01T13:51:05.472Z,97442.44
2023-04-01T13:52:26.417Z,97469.91
2023-04-01T13:54:00.737Z,97486.94
2023-04-01T13:55:32.843Z,97501.22
2023-04-01T13:56:55.892Z,97501.13
2023-04-01T13:58:45.089Z,97491.31
2023-04-01T14:00:21.537Z,97485.63
2023-04-01T14:01:47.961Z,97501.31
2023-04-01T14:02:58.844Z,97517.84
2023-04-01T14:04:13.961Z,97549.06
2023-04-01T14:05:32.489Z,97540.13
2023-04-01T14:06:44.856Z,97555.56
2023-04-01T14:08:16.023Z,97570.22
2023-04-01T14:09:36.559Z,97569.47
2023-04-01T14:10:50.927Z,97572.69